createdAt,value
2022-08-05T00:00:17.709Z,1013.53
2022-08-05T00:01:27.339Z,1013.53
2022-08-05T00:02:21.384Z,1013.52
2022-08-05T00:03:17.568Z,1013.54
2022-08-05T00:04:17.881Z,1013.55
2022-08-05T00:06:03.201Z,1013.59
2022-08-05T00:06:29.235Z,1013.61
2022-08-05T00:07:59.329Z,1013.58
2022-08-05T00:08:34.664Z,1013.60
2022-08-05T00:09:21.127Z,1013.64
2022-08-05T00:10:22.960Z,1013.60
2022-08-05T00:11:30.328Z,1013.58
2022-08-05T00:12:23.291Z,1013.55
2022-08-05T00:13:38.906Z,1013.50
2022-08-05T00:14:22.701Z,1013.57
2022-08-05T00:15:55.953Z,1013.61
2022-08-05T00:16:36.007Z,1013.57
2022-08-05T00:17:23.661Z,1013.63
2022-08-05T00:18:23.897Z,1013.69
2022-08-05T00:19:22.598Z,1013.75
2022-08-05T00:20:22.547Z,1013.82
2022-08-05T00:21:25.737Z,1013.89
2022-08-05T00:22:26.383Z,1013.90
2022-08-05T00:23:31.087Z,1013.92
2022-08-05T00:24:31.254Z,1013.89
2022-08-05T00:25:24.963Z,1013.90
2022-08-05T00:26:25.383Z,1013.91
2022-08-05T00:27:35.640Z,1013.92
2022-08-05T00:28:29.612Z,1013.89
2022-08-05T00:29:26.219Z,1013.89
2022-08-05T00:30:28.967Z,1013.93
2022-08-05T00:31:53.156Z,1013.97
2022-08-05T00:32:28.955Z,1014.06
2022-08-05T00:34:53.629Z,1014.11
2022-08-05T00:34:53.875Z,1014.15
2022-08-05T00:35:33.189Z,1014.17
2022-08-05T00:37:11.667Z,1014.19
2022-08-05T00:37:51.159Z,1014.19
2022-08-05T00:38:33.794Z,1014.21
2022-08-05T00:39:29.068Z,1014.20
2022-08-05T00:40:31.197Z,1014.23
2022-08-05T00:41:28.609Z,1014.23
2022-08-05T00:42:32.480Z,1014.21
2022-08-05T00:43:46.680Z,1014.26
2022-08-05T00:44:33.143Z,1014.29
2022-08-05T00:45:42.855Z,1014.40
2022-08-05T00:46:42.548Z,1014.43
2022-08-05T00:47:56.763Z,1014.47
2022-08-05T00:48:31.824Z,1014.52
2022-08-05T00:49:51.012Z,1014.55
2022-08-05T00:50:34.018Z,1014.62
2022-08-05T00:51:51.705Z,1014.61
2022-08-05T00:52:32.703Z,1014.56
2022-08-05T00:53:44.915Z,1014.55
2022-08-05T00:54:33.208Z,1014.49
2022-08-05T00:55:42.854Z,1014.49
2022-08-05T00:56:33.689Z,1014.49
2022-08-05T00:57:55.620Z,1014.49
2022-08-05T00:58:34.290Z,1014.47
2022-08-05T00:59:44.611Z,1014.44
2022-08-05T01:00:36.652Z,1014.37
2022-08-05T01:01:42.797Z,1014.35
2022-08-05T01:02:35.480Z,1014.32
2022-08-05T01:03:36.666Z,1014.27
2022-08-05T01:04:36.873Z,1014.17
2022-08-05T01:05:36.398Z,1014.14
2022-08-05T01:06:37.595Z,1014.13
2022-08-05T01:07:37.782Z,1014.06
2022-08-05T01:08:42.818Z,1013.96
2022-08-05T01:09:39.522Z,1013.88
2022-08-05T01:10:36.853Z,1013.77
2022-08-05T01:11:40.963Z,1013.72
2022-08-05T01:12:39.178Z,1013.72
2022-08-05T01:13:58.390Z,1013.70
2022-08-05T01:14:38.849Z,1013.72
2022-08-05T01:15:38.191Z,1013.74
2022-08-05T01:16:44.260Z,1013.72
2022-08-05T01:17:40.249Z,1013.75
2022-08-05T01:18:40.172Z,1013.64
2022-08-05T01:20:01.417Z,1013.57
2022-08-05T01:20:40.755Z,1013.51
2022-08-05T01:21:40.839Z,1013.45
2022-08-05T01:22:42.194Z,1013.47
2022-08-05T01:23:40.580Z,1013.50
2022-08-05T01:24:40.873Z,1013.58
2022-08-05T01:25:41.674Z,1013.67
2022-08-05T01:26:42.407Z,1013.70
2022-08-05T01:27:54.860Z,1013.67
2022-08-05T01:28:42.942Z,1013.62
2022-08-05T01:29:42.963Z,1013.63
2022-08-05T01:30:53.502Z,1013.62
2022-08-05T01:31:45.354Z,1013.63
2022-08-05T01:32:43.874Z,1013.63
2022-08-05T01:33:48.896Z,1013.66
2022-08-05T01:34:43.578Z,1013.70
2022-08-05T01:35:51.940Z,1013.69
2022-08-05T01:36:47.078Z,1013.67
2022-08-05T01:37:44.689Z,1013.70
2022-08-05T01:38:48.525Z,1013.71
2022-08-05T01:39:47.979Z,1013.66
2022-08-05T01:40:45.209Z,1013.57
2022-08-05T01:41:47.048Z,1013.53
2022-08-05T01:42:47.811Z,1013.41
2022-08-05T01:43:48.910Z,1013.34
2022-08-05T01:44:53.840Z,1013.27
2022-08-05T01:45:47.725Z,1013.27
2022-08-05T01:46:48.936Z,1013.40
2022-08-05T01:47:47.846Z,1013.48
2022-08-05T01:48:49.419Z,1013.48
2022-08-05T01:50:02.057Z,1013.46
2022-08-05T01:50:51.134Z,1013.42
2022-08-05T01:51:51.838Z,1013.38
2022-08-05T01:52:49.955Z,1013.37
2022-08-05T01:53:58.075Z,1013.36
2022-08-05T01:54:52.902Z,1013.39
2022-08-05T01:55:49.442Z,1013.40
2022-08-05T01:58:11.774Z,1013.39
2022-08-05T01:58:29.705Z,1013.41
2022-08-05T01:58:51.806Z,1013.35
2022-08-05T01:59:52.648Z,1013.33
2022-08-05T02:00:50.965Z,1013.35
2022-08-05T02:01:52.177Z,1013.37
2022-08-05T02:02:55.123Z,1013.42
2022-08-05T02:03:51.670Z,1013.40
2022-08-05T02:04:53.874Z,1013.42
2022-08-05T02:05:59.929Z,1013.42
2022-08-05T02:06:55.074Z,1013.43
2022-08-05T02:08:00.149Z,1013.45
2022-08-05T02:08:58.800Z,1013.41
2022-08-05T02:09:53.508Z,1013.29
2022-08-05T02:10:56.663Z,1013.22
2022-08-05T02:11:56.665Z,1013.21
2022-08-05T02:12:54.435Z,1013.18
2022-08-05T02:13:56.610Z,1013.19
2022-08-05T02:14:54.998Z,1013.13
2022-08-05T02:15:57.181Z,1013.04
2022-08-05T02:16:56.351Z,1012.85
2022-08-05T02:18:28.478Z,1012.71
2022-08-05T02:18:57.083Z,1012.48
2022-08-05T02:19:56.349Z,1012.29
2022-08-05T02:20:58.768Z,1012.09
2022-08-05T02:21:57.867Z,1011.90
2022-08-05T02:22:57.194Z,1011.85
2022-08-05T02:23:57.505Z,1011.78
2022-08-05T02:24:57.811Z,1011.72
2022-08-05T02:26:00.037Z,1011.67
2022-08-05T02:27:00.388Z,1011.62
2022-08-05T02:28:00.470Z,1011.60
2022-08-05T02:28:59.035Z,1011.59
2022-08-05T02:30:00.742Z,1011.59
2022-08-05T02:31:01.515Z,1011.57
2022-08-05T02:32:05.025Z,1011.53
2022-08-05T02:33:01.902Z,1011.55
2022-08-05T02:34:00.503Z,1011.66
2022-08-05T02:35:09.555Z,1011.78
2022-08-05T02:36:03.998Z,1012.00
2022-08-05T02:37:04.519Z,1012.16
2022-08-05T02:38:03.370Z,1012.34
2022-08-05T02:39:02.954Z,1012.44
2022-08-05T02:40:04.225Z,1012.53
2022-08-05T02:41:14.468Z,1012.62
2022-08-05T02:42:05.251Z,1012.70
2022-08-05T02:43:07.342Z,1012.73
2022-08-05T02:44:06.880Z,1012.72
2022-08-05T02:45:06.471Z,1012.72
2022-08-05T02:46:04.784Z,1012.71
2022-08-05T02:47:05.652Z,1012.73
2022-08-05T02:48:11.540Z,1012.77
2022-08-05T02:49:05.734Z,1012.76
2022-08-05T02:50:07.919Z,1012.73
2022-08-05T02:51:05.325Z,1012.72
2022-08-05T02:52:06.503Z,1012.67
2022-08-05T02:53:07.368Z,1012.76
2022-08-05T02:54:08.098Z,1012.72
2022-08-05T02:55:10.729Z,1012.67
2022-08-05T02:56:09.590Z,1012.63
2022-08-05T02:57:10.252Z,1012.61
2022-08-05T02:58:13.077Z,1012.56
2022-08-05T02:59:07.739Z,1012.52
2022-08-05T03:00:07.931Z,1012.57
2022-08-05T03:01:10.191Z,1012.62
2022-08-05T03:02:12.196Z,1012.68
2022-08-05T03:03:10.553Z,1012.76
2022-08-05T03:04:12.935Z,1012.81
2022-08-05T03:05:11.214Z,1012.88
2022-08-05T03:06:55.670Z,1012.99
2022-08-05T03:07:24.680Z,1013.03
2022-08-05T03:08:11.392Z,1013.09
2022-08-05T03:09:12.340Z,1013.12
2022-08-05T03:10:11.635Z,1013.13
2022-08-05T03:11:55.164Z,1013.06
2022-08-05T03:12:14.098Z,1013.03
2022-08-05T03:13:16.913Z,1013.09
2022-08-05T03:14:13.247Z,1013.09
2022-08-05T03:15:12.387Z,1013.10
2022-08-05T03:16:12.270Z,1013.10
2022-08-05T03:17:15.643Z,1013.22
2022-08-05T03:18:12.804Z,1013.30
2022-08-05T03:19:33.165Z,1013.40
2022-08-05T03:20:14.442Z,1013.47
2022-08-05T03:21:15.618Z,1013.48
2022-08-05T03:22:19.035Z,1013.42
2022-08-05T03:23:15.279Z,1013.35
2022-08-05T03:24:14.529Z,1013.30
2022-08-05T03:25:33.016Z,1013.28
2022-08-05T03:26:30.844Z,1013.28
2022-08-05T03:27:20.586Z,1013.24
2022-08-05T03:28:18.648Z,1013.22
2022-08-05T03:29:17.361Z,1013.10
2022-08-05T03:30:16.259Z,1013.07
2022-08-05T03:31:25.829Z,1013.01
2022-08-05T03:32:21.691Z,1013.04
2022-08-05T03:33:18.031Z,1013.03
2022-08-05T03:34:17.311Z,1013.03
2022-08-05T03:35:17.655Z,1013.04
2022-08-05T03:36:17.928Z,1013.04
2022-08-05T03:37:23.409Z,1013.08
2022-08-05T03:38:19.480Z,1013.04
2022-08-05T03:39:20.317Z,1013.00
2022-08-05T03:40:31.303Z,1013.06
2022-08-05T03:41:20.280Z,1013.01
2022-08-05T03:42:23.462Z,1013.01
2022-08-05T03:44:08.756Z,1013.06
2022-08-05T03:44:21.437Z,1013.11
2022-08-05T03:45:22.585Z,1013.16
2022-08-05T03:46:22.783Z,1013.19
2022-08-05T03:47:25.331Z,1013.15
2022-08-05T03:48:24.178Z,1013.18
2022-08-05T03:49:24.206Z,1013.15
2022-08-05T03:50:23.073Z,1013.17
2022-08-05T03:52:38.911Z,1013.20
2022-08-05T03:52:39.200Z,1013.29
2022-08-05T03:54:59.412Z,1013.38
2022-08-05T03:55:34.061Z,1013.36
2022-08-05T03:56:04.693Z,1013.40
2022-08-05T03:56:27.893Z,1013.39
2022-08-05T03:57:29.025Z,1013.40
2022-08-05T03:58:28.900Z,1013.38
2022-08-05T03:59:24.573Z,1013.35
2022-08-05T04:00:24.732Z,1013.29
2022-08-05T04:01:25.001Z,1013.29
2022-08-05T04:02:39.194Z,1013.26
2022-08-05T04:03:30.489Z,1013.24
2022-08-05T04:04:26.506Z,1013.29
2022-08-05T04:05:26.065Z,1013.36
2022-08-05T04:06:26.393Z,1013.38
2022-08-05T04:07:28.591Z,1013.43
2022-08-05T04:08:34.858Z,1013.43
2022-08-05T04:09:28.155Z,1013.48
2022-08-05T04:10:27.916Z,1013.53
2022-08-05T04:11:50.945Z,1013.58
2022-08-05T04:12:29.913Z,1013.64
2022-08-05T04:13:50.234Z,1013.64
2022-08-05T04:14:32.910Z,1013.64
2022-08-05T04:15:33.337Z,1013.64
2022-08-05T04:16:33.390Z,1013.63
2022-08-05T04:17:55.699Z,1013.62
2022-08-05T04:18:31.531Z,1013.60
2022-08-05T04:19:33.180Z,1013.53
2022-08-05T04:20:33.388Z,1013.52
2022-08-05T04:22:08.963Z,1013.51
2022-08-05T04:22:33.600Z,1013.47
2022-08-05T04:24:04.754Z,1013.48
2022-08-05T04:24:33.681Z,1013.45
2022-08-05T04:25:57.714Z,1013.42
2022-08-05T04:26:33.831Z,1013.45
2022-08-05T04:27:43.600Z,1013.50
2022-08-05T04:28:33.303Z,1013.60
2022-08-05T04:29:33.542Z,1013.64
2022-08-05T04:30:34.782Z,1013.61
2022-08-05T04:31:38.657Z,1013.53
2022-08-05T04:32:34.451Z,1013.40
2022-08-05T04:34:18.940Z,1013.40
2022-08-05T04:34:37.490Z,1013.41
2022-08-05T04:36:16.321Z,1013.40
2022-08-05T04:36:46.224Z,1013.45
2022-08-05T04:38:02.386Z,1013.45
2022-08-05T04:38:39.586Z,1013.47
2022-08-05T04:39:36.206Z,1013.46
2022-08-05T04:40:37.413Z,1013.53
2022-08-05T04:41:38.800Z,1013.52
2022-08-05T04:42:39.067Z,1013.56
2022-08-05T04:43:36.487Z,1013.64
2022-08-05T04:44:36.823Z,1013.66
2022-08-05T04:45:48.991Z,1013.71
2022-08-05T04:46:38.306Z,1013.72
2022-08-05T04:47:42.877Z,1013.73
2022-08-05T04:48:40.673Z,1013.77
2022-08-05T04:50:01.769Z,1013.74
2022-08-05T04:51:01.724Z,1013.75
2022-08-05T04:51:41.598Z,1013.76
2022-08-05T04:52:40.306Z,1013.75
2022-08-05T04:53:39.941Z,1013.82
2022-08-05T04:54:39.500Z,1013.86
2022-08-05T04:56:15.490Z,1013.90
2022-08-05T04:56:42.467Z,1013.96
2022-08-05T04:57:42.167Z,1013.99
2022-08-05T04:58:41.513Z,1013.93
2022-08-05T04:59:40.983Z,1013.93
2022-08-05T05:00:41.019Z,1013.97
2022-08-05T05:02:07.570Z,1013.97
2022-08-05T05:02:43.266Z,1013.99
2022-08-05T05:03:42.794Z,1014.02
2022-08-05T05:04:43.940Z,1014.04
2022-08-05T05:06:40.241Z,1014.01
2022-08-05T05:06:49.234Z,1013.98
2022-08-05T05:07:45.729Z,1013.88
2022-08-05T05:08:50.086Z,1013.76
2022-08-05T05:09:43.462Z,1013.68
2022-08-05T05:10:47.310Z,1013.61
2022-08-05T05:11:53.176Z,1013.57
2022-08-05T05:12:45.378Z,1013.52
2022-08-05T05:13:47.070Z,1013.57
2022-08-05T05:14:49.336Z,1013.55
2022-08-05T05:15:57.364Z,1013.57
2022-08-05T05:16:50.631Z,1013.60
2022-08-05T05:17:56.840Z,1013.61
2022-08-05T05:19:02.751Z,1013.61
2022-08-05T05:19:47.632Z,1013.65
2022-08-05T05:20:48.394Z,1013.65
2022-08-05T05:21:48.732Z,1013.64
2022-08-05T05:22:49.968Z,1013.64
2022-08-05T05:24:02.715Z,1013.59
2022-08-05T05:24:59.004Z,1013.65
2022-08-05T05:25:48.863Z,1013.68
2022-08-05T05:26:51.971Z,1013.71
2022-08-05T05:27:54.042Z,1013.74
2022-08-05T05:28:49.653Z,1013.74
2022-08-05T05:30:04.403Z,1013.78
2022-08-05T05:30:52.242Z,1013.76
2022-08-05T05:31:50.372Z,1013.78
2022-08-05T05:32:51.684Z,1013.74
2022-08-05T05:33:59.551Z,1013.71
2022-08-05T05:34:52.316Z,1013.75
2022-08-05T05:35:52.526Z,1013.72
2022-08-05T05:36:54.674Z,1013.75
2022-08-05T05:38:00.001Z,1013.77
2022-08-05T05:38:52.375Z,1013.72
2022-08-05T05:39:51.918Z,1013.73
2022-08-05T05:40:52.834Z,1013.70
2022-08-05T05:41:54.272Z,1013.71
2022-08-05T05:42:54.603Z,1013.65
2022-08-05T05:43:58.117Z,1013.59
2022-08-05T05:44:54.226Z,1013.57
2022-08-05T05:45:54.505Z,1013.59
2022-08-05T05:46:55.288Z,1013.55
2022-08-05T05:48:06.780Z,1013.60
2022-08-05T05:48:57.265Z,1013.57
2022-08-05T05:50:01.324Z,1013.54
2022-08-05T05:50:55.817Z,1013.56
2022-08-05T05:51:58.990Z,1013.54
2022-08-05T05:52:55.564Z,1013.63
2022-08-05T05:53:59.783Z,1013.61
2022-08-05T05:54:55.970Z,1013.61
2022-08-05T05:56:00.843Z,1013.60
2022-08-05T05:57:00.525Z,1013.58
2022-08-05T05:57:56.728Z,1013.54
2022-08-05T05:58:57.956Z,1013.54
2022-08-05T05:59:58.231Z,1013.51
2022-08-05T06:00:57.531Z,1013.47
2022-08-05T06:02:02.084Z,1013.49
2022-08-05T06:02:59.932Z,1013.59
2022-08-05T06:04:01.683Z,1013.56
2022-08-05T06:04:59.710Z,1013.57
2022-08-05T06:05:58.931Z,1013.58
2022-08-05T06:07:02.095Z,1013.60
2022-08-05T06:08:02.014Z,1013.69
2022-08-05T06:09:01.593Z,1013.72
2022-08-05T06:10:04.711Z,1013.69
2022-08-05T06:11:01.245Z,1013.71
2022-08-05T06:12:02.999Z,1013.66
2022-08-05T06:13:02.691Z,1013.66
2022-08-05T06:14:01.228Z,1013.68
2022-08-05T06:15:03.405Z,1013.66
2022-08-05T06:16:31.400Z,1013.71
2022-08-05T06:17:22.359Z,1013.70
2022-08-05T06:18:05.300Z,1013.70
2022-08-05T06:19:05.929Z,1013.73
2022-08-05T06:20:04.678Z,1013.77
2022-08-05T06:21:03.247Z,1013.82
2022-08-05T06:22:06.906Z,1013.78
2022-08-05T06:23:04.151Z,1013.81
2022-08-05T06:24:11.750Z,1013.77
2022-08-05T06:25:59.302Z,1013.77
2022-08-05T06:26:13.388Z,1013.82
2022-08-05T06:28:09.062Z,1013.83
2022-08-05T06:28:09.337Z,1013.83
2022-08-05T06:29:43.142Z,1013.80
2022-08-05T06:30:18.146Z,1013.84
2022-08-05T06:31:11.257Z,1013.85
2022-08-05T06:32:17.243Z,1013.81
2022-08-05T06:33:09.851Z,1013.83
2022-08-05T06:34:10.351Z,1013.78
2022-08-05T06:35:21.662Z,1013.76
2022-08-05T06:36:10.183Z,1013.84
2022-08-05T06:37:11.064Z,1013.82
2022-08-05T06:38:11.605Z,1013.80
2022-08-05T06:39:12.134Z,1013.92
2022-08-05T06:40:09.441Z,1013.92
2022-08-05T06:41:09.602Z,1013.93
2022-08-05T06:42:11.821Z,1013.81
2022-08-05T06:43:58.839Z,1013.79
2022-08-05T06:44:10.741Z,1013.85
2022-08-05T06:45:09.937Z,1013.88
2022-08-05T06:46:13.153Z,1013.91
2022-08-05T06:48:11.436Z,1013.93
2022-08-05T06:48:50.384Z,1013.91
2022-08-05T06:49:13.456Z,1013.97
2022-08-05T06:50:17.393Z,1014.01
2022-08-05T06:51:26.666Z,1013.97
2022-08-05T06:52:36.794Z,1013.98
2022-08-05T06:53:22.393Z,1013.92
2022-08-05T06:54:19.124Z,1013.96
2022-08-05T06:55:15.177Z,1013.97
2022-08-05T06:56:25.947Z,1013.97
2022-08-05T06:57:58.198Z,1013.97
2022-08-05T06:58:20.250Z,1014.01
2022-08-05T06:59:16.689Z,1014.03
2022-08-05T07:00:22.307Z,1014.05
2022-08-05T07:01:15.537Z,1014.03
2022-08-05T07:02:15.737Z,1014.05
2022-08-05T07:03:17.924Z,1014.07
2022-08-05T07:04:19.246Z,1014.06
2022-08-05T07:05:21.348Z,1014.04
2022-08-05T07:06:16.672Z,1014.12
2022-08-05T07:07:16.441Z,1014.11
2022-08-05T07:08:19.328Z,1014.09
2022-08-05T07:09:18.520Z,1014.04
2022-08-05T07:10:18.698Z,1014.03
2022-08-05T07:11:17.227Z,1014.09
2022-08-05T07:12:20.384Z,1014.07
2022-08-05T07:13:52.480Z,1014.07
2022-08-05T07:14:29.821Z,1014.04
2022-08-05T07:15:34.344Z,1014.03
2022-08-05T07:17:59.397Z,1014.00
2022-08-05T07:18:00.995Z,1014.04
2022-08-05T07:18:28.924Z,1014.01
2022-08-05T07:20:10.690Z,1013.96
2022-08-05T07:20:37.171Z,1013.93
2022-08-05T07:21:25.825Z,1013.97
2022-08-05T07:22:27.812Z,1013.99
2022-08-05T07:23:26.096Z,1013.98
2022-08-05T07:24:22.423Z,1013.98
2022-08-05T07:25:54.654Z,1013.99
2022-08-05T07:26:22.913Z,1013.98
2022-08-05T07:27:27.238Z,1014.03
2022-08-05T07:28:23.662Z,1014.02
2022-08-05T07:29:25.439Z,1014.08
2022-08-05T07:30:28.496Z,1014.09
2022-08-05T07:31:40.846Z,1014.13
2022-08-05T07:32:26.042Z,1014.12
2022-08-05T07:33:36.541Z,1014.12
2022-08-05T07:34:28.540Z,1014.08
2022-08-05T07:36:04.334Z,1014.02
2022-08-05T07:36:25.194Z,1013.97
2022-08-05T07:37:28.885Z,1014.02
2022-08-05T07:38:32.493Z,1013.95
2022-08-05T07:40:25.973Z,1013.97
2022-08-05T07:40:32.829Z,1013.97
2022-08-05T07:42:07.881Z,1013.95
2022-08-05T07:42:33.806Z,1013.93
2022-08-05T07:43:29.008Z,1013.94
2022-08-05T07:44:28.385Z,1013.99
2022-08-05T07:45:56.774Z,1013.99
2022-08-05T07:46:29.573Z,1013.94
2022-08-05T07:47:27.206Z,1013.96
2022-08-05T07:49:00.348Z,1013.92
2022-08-05T07:49:32.600Z,1013.90
2022-08-05T07:50:33.572Z,1013.92
2022-08-05T07:51:36.835Z,1013.94
2022-08-05T07:52:29.505Z,1013.90
2022-08-05T07:53:36.818Z,1013.91
2022-08-05T07:54:33.572Z,1013.93
2022-08-05T07:55:57.191Z,1013.98
2022-08-05T07:57:00.101Z,1014.01
2022-08-05T07:57:55.200Z,1014.02
2022-08-05T07:58:54.959Z,1014.07
2022-08-05T07:59:39.840Z,1014.05
2022-08-05T08:00:31.737Z,1014.07
2022-08-05T08:01:31.109Z,1013.99
2022-08-05T08:03:14.208Z,1013.97
2022-08-05T08:03:44.046Z,1013.93
2022-08-05T08:04:37.948Z,1013.95
2022-08-05T08:05:33.244Z,1013.97
2022-08-05T08:06:33.521Z,1013.97
2022-08-05T08:07:39.696Z,1013.98
2022-08-05T08:08:34.161Z,1013.96
2022-08-05T08:09:34.438Z,1013.90
2022-08-05T08:10:35.684Z,1013.88
2022-08-05T08:11:47.659Z,1013.91
2022-08-05T08:12:49.296Z,1013.93
2022-08-05T08:13:42.720Z,1013.95
2022-08-05T08:14:37.276Z,1013.97
2022-08-05T08:16:33.987Z,1013.93
2022-08-05T08:16:50.287Z,1013.92
2022-08-05T08:17:38.505Z,1013.91
2022-08-05T08:18:35.956Z,1013.88
2022-08-05T08:20:22.756Z,1013.89
2022-08-05T08:20:45.074Z,1013.86
2022-08-05T08:21:37.763Z,1013.87
2022-08-05T08:22:37.055Z,1013.84
2022-08-05T08:24:03.842Z,1013.86
2022-08-05T08:24:50.979Z,1013.83
2022-08-05T08:26:00.853Z,1013.84
2022-08-05T08:26:39.170Z,1013.82
2022-08-05T08:27:45.131Z,1013.80
2022-08-05T08:29:02.379Z,1013.81
2022-08-05T08:30:05.171Z,1013.81
2022-08-05T08:30:47.843Z,1013.84
2022-08-05T08:31:40.528Z,1013.87
2022-08-05T08:32:39.850Z,1013.94
2022-08-05T08:33:41.966Z,1013.94
2022-08-05T08:34:41.252Z,1013.90
2022-08-05T08:35:53.970Z,1013.95
2022-08-05T08:36:48.924Z,1013.99
2022-08-05T08:37:46.173Z,1014.03
2022-08-05T08:38:43.428Z,1014.01
2022-08-05T08:39:49.750Z,1014.02
2022-08-05T08:40:42.034Z,1014.02
2022-08-05T08:41:52.412Z,1014.13
2022-08-05T08:42:50.519Z,1013.97
2022-08-05T08:45:22.721Z,1013.96
2022-08-05T08:45:25.130Z,1014.01
2022-08-05T08:45:45.896Z,1013.96
2022-08-05T08:46:45.632Z,1014.01
2022-08-05T08:48:05.811Z,1014.05
2022-08-05T08:49:06.279Z,1014.04
2022-08-05T08:50:23.269Z,1014.04
2022-08-05T08:51:03.902Z,1014.13
2022-08-05T08:52:05.786Z,1014.04
2022-08-05T08:52:52.806Z,1014.02
2022-08-05T08:53:48.519Z,1014.06
2022-08-05T08:54:48.807Z,1014.04
2022-08-05T08:56:03.672Z,1014.07
2022-08-05T08:56:49.526Z,1014.04
2022-08-05T08:57:57.876Z,1014.05
2022-08-05T08:58:50.608Z,1014.16
2022-08-05T08:59:50.169Z,1014.06
2022-08-05T09:00:47.569Z,1014.13
2022-08-05T09:01:57.556Z,1014.19
2022-08-05T09:02:49.067Z,1014.32
2022-08-05T09:03:55.207Z,1014.28
2022-08-05T09:05:16.066Z,1014.22
2022-08-05T09:06:08.949Z,1014.29
2022-08-05T09:06:50.170Z,1014.24
2022-08-05T09:07:57.823Z,1014.17
2022-08-05T09:08:50.709Z,1014.15
2022-08-05T09:09:53.004Z,1014.09
2022-08-05T09:10:50.331Z,1014.02
2022-08-05T09:11:55.311Z,1013.99
2022-08-05T09:12:53.710Z,1013.98
2022-08-05T09:14:09.149Z,1014.03
2022-08-05T09:14:59.298Z,1014.18
2022-08-05T09:15:52.613Z,1014.17
2022-08-05T09:16:53.802Z,1014.09
2022-08-05T09:17:53.259Z,1014.10
2022-08-05T09:18:52.552Z,1014.14
2022-08-05T09:20:02.772Z,1014.29
2022-08-05T09:20:54.166Z,1014.33
2022-08-05T09:22:22.751Z,1014.02
2022-08-05T09:22:54.725Z,1013.98
2022-08-05T09:23:58.190Z,1013.97
2022-08-05T09:24:59.200Z,1014.26
2022-08-05T09:26:01.308Z,1014.21
2022-08-05T09:26:57.738Z,1014.23
2022-08-05T09:28:05.094Z,1014.05
2022-08-05T09:28:56.390Z,1013.95
2022-08-05T09:30:02.238Z,1013.96
2022-08-05T09:30:58.787Z,1014.04
2022-08-05T09:32:40.812Z,1014.01
2022-08-05T09:32:59.315Z,1014.27
2022-08-05T09:33:56.766Z,1014.33
2022-08-05T09:34:58.028Z,1014.09
2022-08-05T09:35:58.757Z,1013.97
2022-08-05T09:37:00.058Z,1014.02
2022-08-05T09:38:16.488Z,1014.03
2022-08-05T09:39:00.827Z,1014.12
2022-08-05T09:40:01.433Z,1014.23
2022-08-05T09:40:58.738Z,1014.27
2022-08-05T09:42:00.958Z,1014.11
2022-08-05T09:42:59.197Z,1014.13
2022-08-05T09:43:59.533Z,1014.33
2022-08-05T09:46:04.619Z,1014.31
2022-08-05T09:46:06.253Z,1014.41
2022-08-05T09:47:03.122Z,1014.43
2022-08-05T09:48:03.290Z,1014.22
2022-08-05T09:49:07.832Z,1014.27
2022-08-05T09:50:05.033Z,1014.10
2022-08-05T09:51:01.383Z,1014.12
2022-08-05T09:52:03.524Z,1014.10
2022-08-05T09:53:01.843Z,1014.12
2022-08-05T09:54:04.014Z,1014.12
2022-08-05T09:55:55.518Z,1014.07
2022-08-05T09:56:04.830Z,1014.05
2022-08-05T09:57:05.892Z,1014.01
2022-08-05T09:58:06.056Z,1014.04
2022-08-05T09:59:04.162Z,1014.03
2022-08-05T10:00:08.293Z,1014.02
2022-08-05T10:01:14.615Z,1014.01
2022-08-05T10:02:05.372Z,1013.97
2022-08-05T10:03:06.579Z,1014.00
2022-08-05T10:04:10.541Z,1013.97
2022-08-05T10:05:08.199Z,1014.01
2022-08-05T10:06:15.513Z,1013.97
2022-08-05T10:07:19.907Z,1014.02
2022-08-05T10:08:10.628Z,1014.04
2022-08-05T10:09:09.241Z,1014.06
2022-08-05T10:10:15.069Z,1014.09
2022-08-05T10:11:07.850Z,1014.09
2022-08-05T10:12:30.562Z,1014.07
2022-08-05T10:13:09.841Z,1014.12
2022-08-05T10:14:07.694Z,1014.14
2022-08-05T10:15:11.363Z,1014.12
2022-08-05T10:16:08.291Z,1014.13
2022-08-05T10:17:08.538Z,1014.13
2022-08-05T10:18:12.577Z,1014.15
2022-08-05T10:19:10.178Z,1014.14
2022-08-05T10:20:10.095Z,1014.18
2022-08-05T10:21:15.619Z,1014.19
2022-08-05T10:22:15.555Z,1014.20
2022-08-05T10:23:34.300Z,1014.21
2022-08-05T10:24:13.773Z,1014.22
2022-08-05T10:25:14.380Z,1014.25
2022-08-05T10:26:14.035Z,1014.23
2022-08-05T10:27:11.282Z,1014.24
2022-08-05T10:28:16.979Z,1014.25
2022-08-05T10:29:17.169Z,1014.29
2022-08-05T10:31:20.651Z,1014.32
2022-08-05T10:32:51.032Z,1014.28
2022-08-05T10:32:54.508Z,1014.29
2022-08-05T10:33:15.043Z,1014.25
2022-08-05T10:34:13.089Z,1014.27
2022-08-05T10:35:17.269Z,1014.27
2022-08-05T10:36:13.599Z,1014.24
2022-08-05T10:37:15.784Z,1014.15
2022-08-05T10:38:15.974Z,1014.16
2022-08-05T10:39:24.047Z,1014.09
2022-08-05T10:40:17.924Z,1014.08
2022-08-05T10:41:15.974Z,1014.09
2022-08-05T10:42:32.319Z,1014.14
2022-08-05T10:43:20.313Z,1014.08
2022-08-05T10:44:15.811Z,1014.16
2022-08-05T10:45:21.180Z,1014.15
2022-08-05T10:46:18.343Z,1014.16
2022-08-05T10:47:25.879Z,1014.18
2022-08-05T10:48:31.550Z,1014.11
2022-08-05T10:49:26.544Z,1014.18
2022-08-05T10:50:36.261Z,1014.21
2022-08-05T10:51:21.777Z,1014.15
2022-08-05T10:52:17.935Z,1014.11
2022-08-05T10:53:18.278Z,1014.15
2022-08-05T10:54:31.113Z,1014.23
2022-08-05T10:55:38.629Z,1014.13
2022-08-05T10:56:30.441Z,1014.14
2022-08-05T10:57:33.727Z,1014.20
2022-08-05T10:58:35.877Z,1014.18
2022-08-05T11:00:02.640Z,1014.10
2022-08-05T11:00:31.512Z,1014.12
2022-08-05T11:01:54.836Z,1014.04
2022-08-05T11:02:37.859Z,1014.09
2022-08-05T11:03:33.620Z,1014.17
2022-08-05T11:04:31.690Z,1014.13
2022-08-05T11:05:35.789Z,1014.12
2022-08-05T11:06:32.238Z,1014.13
2022-08-05T11:07:33.097Z,1014.06
2022-08-05T11:08:37.261Z,1014.12
2022-08-05T11:09:45.451Z,1014.07
2022-08-05T11:10:36.169Z,1013.99
2022-08-05T11:11:52.234Z,1013.96
2022-08-05T11:12:34.940Z,1013.99
2022-08-05T11:13:34.261Z,1013.93
2022-08-05T11:15:01.424Z,1013.99
2022-08-05T11:16:00.642Z,1014.10
2022-08-05T11:16:56.719Z,1014.13
2022-08-05T11:17:57.969Z,1014.09
2022-08-05T11:18:37.554Z,1014.13
2022-08-05T11:20:17.127Z,1014.16
2022-08-05T11:20:41.674Z,1014.17
2022-08-05T11:21:48.891Z,1014.20
2022-08-05T11:22:37.605Z,1014.25
2022-08-05T11:24:02.579Z,1014.28
2022-08-05T11:24:40.085Z,1014.29
2022-08-05T11:26:04.712Z,1014.35
2022-08-05T11:26:38.731Z,1014.29
2022-08-05T11:27:51.025Z,1014.31
2022-08-05T11:28:39.311Z,1014.34
2022-08-05T11:29:40.487Z,1014.31
2022-08-05T11:30:38.798Z,1014.29
2022-08-05T11:31:57.147Z,1014.30
2022-08-05T11:32:42.270Z,1014.29
2022-08-05T11:33:46.110Z,1014.29
2022-08-05T11:34:39.891Z,1014.28
2022-08-05T11:36:07.402Z,1014.34
2022-08-05T11:36:42.900Z,1014.39
2022-08-05T11:38:28.889Z,1014.41
2022-08-05T11:38:45.962Z,1014.40
2022-08-05T11:39:48.195Z,1014.41
2022-08-05T11:40:42.336Z,1014.39
2022-08-05T11:42:01.335Z,1014.42
2022-08-05T11:42:43.051Z,1014.46
2022-08-05T11:44:06.417Z,1014.44
2022-08-05T11:44:53.611Z,1014.53
2022-08-05T11:46:16.182Z,1014.59
2022-08-05T11:46:58.266Z,1014.63
2022-08-05T11:47:49.933Z,1014.68
2022-08-05T11:48:44.679Z,1014.54
2022-08-05T11:49:49.871Z,1014.62
2022-08-05T11:50:44.280Z,1014.38
2022-08-05T11:51:49.494Z,1014.45
2022-08-05T11:52:48.388Z,1014.43
2022-08-05T11:53:45.127Z,1014.48
2022-08-05T11:54:48.520Z,1014.50
2022-08-05T11:55:48.477Z,1014.50
2022-08-05T11:56:50.485Z,1014.53
2022-08-05T11:58:09.905Z,1014.41
2022-08-05T11:58:53.154Z,1014.47
2022-08-05T11:59:50.938Z,1014.50
2022-08-05T12:00:48.098Z,1014.56
2022-08-05T12:01:48.512Z,1014.60
2022-08-05T12:02:49.799Z,1014.77
2022-08-05T12:03:55.963Z,1014.72
2022-08-05T12:04:59.267Z,1014.86
2022-08-05T12:05:51.539Z,1014.71
2022-08-05T12:06:49.127Z,1014.50
2022-08-05T12:08:08.484Z,1014.59
2022-08-05T12:08:52.339Z,1014.52